Belle Isle Bank - western half: Past 24 Hour Conditions

 

Grand Étang

05:00 AM ADT 16 April 2014
This table is a summary of hourly weather conditions for the past 24 hours.
Date / Time
(ADT)
Wind(knots) Conditions Visibility(km) Pressure(kPa) Air tempC) Relative humidity(%) Dew pointC)
16 April 2014
5:00 S 28 gust 38 N/A N/A 100.9 16 81 13
4:00 S 24 gust 34 N/A N/A 101.0 15 85 13
3:00 S 21 gust 33 N/A N/A 101.1 16 83 13
2:00 S 23 gust 36 N/A N/A 101.1 16 81 13
1:00 S 13 gust 28 N/A N/A 101.2 16 82 13
0:00 SSE 23 gust 33 N/A N/A 101.3 16 80 13
15 April 2014
23:00 S 21 gust 33 N/A N/A 101.3 16 79 13
22:00 SSE 26 gust 41 N/A N/A 101.4 18 73 13
21:00 SSE 22 gust 39 N/A N/A 101.4 17 74 13
20:00 S 18 gust 26 N/A N/A 101.4 16 71 11
19:00 S 13 gust 19 N/A N/A 101.4 18 61 10
18:00 S 16 gust 26 N/A N/A 101.4 19 57 11
17:00 SSW 17 gust 26 N/A N/A 101.4 20 54 10
16:00 S 15 gust 23 N/A N/A 101.4 20 59 11
15:00 S 18 gust 25 N/A N/A 101.5 20 61 12
14:00 SSW 17 gust 25 N/A N/A 101.6 20 59 12
13:00 SSW 17 gust 29 N/A N/A 101.6 20 60 12
12:00 S 19 gust 26 N/A N/A 101.6 19 63 12
11:00 S 19 gust 32 N/A N/A 101.7 18 66 11
10:00 S 20 gust 30 N/A N/A 101.7 17 67 11
9:00 S 21 gust 31 N/A N/A 101.7 18 67 11
8:00 S 22 gust 33 N/A N/A 101.6 17 71 11
7:00 S 23 gust 32 N/A N/A 101.6 16 72 11
6:00 S 19 gust 28 N/A N/A 101.6 16 77 12
5:00 S 18 gust 30 N/A N/A 101.5 16 78 12
 
Map of Atlantic - Newfoundland marine weather areas Southwestern Grand Banks - 44138 Banquereau - 44139 Tail of the Bank - 44140 Nickerson Bank - 44251 Northeast Burgeo Bank - 44255 Blanc-Sablon Airport Cap Whittle Chevery Natashquan Airport Heath Point Miscou Island Grand Étang Ingonish Beach North Mountain St.Paul Island J.A. Douglas McCurdy Sydney Airport Charlottetown Airport East Point North Cape Argentia Bonavista Burgeo Cape Race Corner Brook Daniel's Harbour Englee Ferolle Point La Scie Port aux Basques Rocky Harbour Sagona Island St. Anthony Airport St. John's Int'l Airport St. Lawrence Stephenville Airport Twillingate Winterland Wreckhouse Cartwright Airport Mary's Harbour Grates Cove Pool's Island Marticot Island Long Pond Îles de la Madeleine Airport
Legend: buoyBuoy land stationLand Station